Flight Track Log - Related Links

Times and Time Zones

All times are in EST time to prevent confusion due to time zone crossing. See the CTL311 flight status page for this flight to view local times or setup timezone preferences in your user account.

Time Position Orientation Groundspeed Altitude Reporting Facility
EST Latitude Longitude Course Direction KTS MPH feet Rate Location/Type
Wed 06:58:38 PM 42.9333 -87.9000 216° Southwest 120 138 1,500  Level KMKE
Wed 06:59:14 PM 42.9167 -87.9167 216° Southwest 122 140 2,100 884 Climbing KMKE
Wed 07:00:13 PM 42.8767 -87.9322 196° South 135 155 2,900 793 Climbing Chicago Center
Wed 07:01:15 PM 42.8417 -87.9561 207° Southwest 138 159 3,700 484 Climbing Chicago Center
Wed 07:02:17 PM 42.8019 -87.9681 192° South 150 173 3,900 97 Climbing Chicago Center
Wed 07:03:19 PM 42.7567 -87.9672 179° South 160 184 3,900 48 Level Chicago Center
Wed 07:04:21 PM 42.7144 -87.9606 173° South 158 182 4,000 48 Climbing Chicago Center
Wed 07:05:23 PM 42.6636 -87.9519 173° South 155 178 4,000 -48 Level Chicago Center
Wed 07:06:25 PM 42.6197 -87.9456 174° South 157 181 3,900  Descending Chicago Center
Wed 07:07:27 PM 42.5750 -87.9411 176° South 160 184 4,000 48 Climbing Chicago Center
Wed 07:08:29 PM 42.5308 -87.9367 176° South 159 183 4,000 -48 Level Chicago Center
Wed 07:09:31 PM 42.4867 -87.9325 176° South 159 183 3,900 -48 Descending Chicago Center
Wed 07:10:33 PM 42.4419 -87.9278 176° South 161 185 3,900 -242 Level Chicago Center
Wed 07:11:35 PM 42.3869 -87.9319 183° South 164 189 3,400 -435 Descending Chicago Center
Wed 07:12:37 PM 42.3367 -87.9383 185° South 168 193 3,000 -194 Descending Chicago Center
Wed 07:13:39 PM 42.2989 -87.9403 182° South 165 190 3,000 -290 Level Chicago Center
Wed 07:14:41 PM 42.2453 -87.9383 178° South 162 186 2,400 -532 Descending Chicago Center
Wed 07:15:43 PM 42.1997 -87.9286 171° South 163 188 1,900 -339 Descending Chicago Center
Wed 07:16:45 PM 42.1600 -87.9214 172° South 161 185 1,700 -194 Descending Chicago Center
Wed 07:18:00 PM 42.1074 -87.9000 180° South  Level FlightAware Approximate
Wed 07:25:00 PM 42.1000 -87.9000 180° South  Level FlightAware Approximate

Login

Don't have an account? Register now (free) for customized features, flight alerts, and more!